Latest Weather Observations for North Head

IDN60901

Issued at 9:41 am EDT Monday 3 October 2022 (issued every 10 minutes, with the page automatically refreshed every 10 minutes)

About weather observations | Map of Sydney area stations | Latest observations for Sydney area | Other Formats
Station Details ID: 066197 Name: NORTH HEAD Lat: -33.82 Lon: 151.30 Height: 90.0 m
Data from the previous 72 hours. | See also: Recent months at North Head
Date/Time
EDT
Temp
°C
App
Temp
°C
Dew
Point
°C
Rel
Hum
%
Delta-T
°C
Wind Press
QNH
hPa
Press
MSL
hPa
Rain since
9am
mm
Dir  Spd
km/h
Gust
km/h
Spd
kts
Gust
kts
03/09:30am - - - - - W 9 13 5 7 - - -
03/09:00am - - - - - W 7 11 4 6 - - -
03/08:30am - - - - - W 9 13 5 7 - - -
03/08:00am - - - - - WNW 9 11 5 6 - - -
03/07:30am - - - - - W 9 11 5 6 - - -
03/07:00am - - - - - W 9 11 5 6 - - -
03/06:30am - - - - - WNW 9 11 5 6 - - -
03/06:00am - - - - - WNW 11 13 6 7 - - -
03/05:30am - - - - - WNW 9 9 5 5 - - -
03/05:00am - - - - - WNW 11 13 6 7 - - -
03/04:30am - - - - - W 9 13 5 7 - - -
03/04:00am - - - - - WNW 13 15 7 8 - - -
03/03:30am - - - - - W 11 13 6 7 - - -
03/03:00am - - - - - W 9 9 5 5 - - -
03/02:30am - - - - - WNW 9 9 5 5 - - -
03/02:00am - - - - - W 9 11 5 6 - - -
03/01:30am - - - - - W 9 11 5 6 - - -
03/01:00am - - - - - W 7 9 4 5 - - -
03/12:30am - - - - - WNW 7 9 4 5 - - -
03/12:00am - - - - - WNW 7 11 4 6 - - -
 
Date/Time
EDT
Temp
°C
App
Temp
°C
Dew
Point
°C
Rel
Hum
%
Delta-T
°C
Wind Press
QNH
hPa
Press
MSL
hPa
Rain since
9am
mm
Dir  Spd
km/h
Gust
km/h
Spd
kts
Gust
kts
02/11:30pm - - - - - WNW 6 7 3 4 - - -
02/11:00pm - - - - - WNW 6 7 3 4 - - -
02/10:30pm - - - - - W 4 6 2 3 - - -
02/10:00pm - - - - - SSW 6 7 3 4 - - -
02/09:30pm - - - - - S 6 9 3 5 - - -
02/09:00pm - - - - - SE 4 9 2 5 - - -
02/08:30pm - - - - - S 6 7 3 4 - - -
02/08:00pm - - - - - CALM 0 4 0 2 - - -
02/07:30pm - - - - - ESE 7 13 4 7 - - -
02/07:00pm - - - - - ESE 7 13 4 7 - - -
02/06:30pm - - - - - ESE 6 13 3 7 - - -
02/06:00pm - - - - - ESE 7 15 4 8 - - -
02/05:30pm - - - - - SSE 11 15 6 8 - - -
02/05:00pm - - - - - ESE 11 17 6 9 - - -
02/04:30pm - - - - - SE 13 20 7 11 - - -
02/04:00pm - - - - - ESE 17 26 9 14 - - -
02/03:30pm - - - - - SE 19 28 10 15 - - -
02/03:00pm - - - - - SE 20 33 11 18 - - -
02/02:30pm - - - - - SE 17 24 9 13 - - -
02/02:00pm - - - - - SSE 17 20 9 11 - - -
02/01:30pm - - - - - SSE 17 22 9 12 - - -
02/01:00pm - - - - - SSE 17 24 9 13 - - -
02/12:30pm - - - - - SSE 15 22 8 12 - - -
02/12:00pm - - - - - SSE 11 19 6 10 - - -
02/11:30am - - - - - SSE 13 20 7 11 - - -
02/11:00am - - - - - S 13 19 7 10 - - -
02/10:30am - - - - - SSW 7 11 4 6 - - -
02/10:00am - - - - - WSW 9 15 5 8 - - -
02/09:30am - - - - - WSW 7 13 4 7 - - -
02/09:00am - - - - - W 9 11 5 6 - - -
02/08:30am - - - - - NW 9 13 5 7 - - -
02/08:00am - - - - - NW 6 7 3 4 - - -
02/07:30am - - - - - NW 6 11 3 6 - - -
02/07:00am - - - - - W 9 13 5 7 - - -
02/06:30am - - - - - W 9 13 5 7 - - -
02/06:00am - - - - - W 9 11 5 6 - - -
02/05:30am - - - - - W 11 13 6 7 - - -
02/05:00am - - - - - W 11 13 6 7 - - -
02/04:30am - - - - - W 11 15 6 8 - - -
02/04:00am - - - - - W 9 11 5 6 - - -
02/03:30am - - - - - W 9 13 5 7 - - -
02/03:00am - - - - - WNW 7 9 4 5 - - -
02/01:30am - - - - - W 7 13 4 7 - - -
02/01:00am - - - - - WSW 9 15 5 8 - - -
02/12:30am - - - - - WNW 7 11 4 6 - - -
02/12:00am - - - - - S 6 9 3 5 - - -
 
Date/Time
EDT
Temp
°C
App
Temp
°C
Dew
Point
°C
Rel
Hum
%
Delta-T
°C
Wind Press
QNH
hPa
Press
MSL
hPa
Rain since
9am
mm
Dir  Spd
km/h
Gust
km/h
Spd
kts
Gust
kts
01/11:30pm - - - - - SSE 20 30 11 16 - - -
01/11:00pm - - - - - SE 13 26 7 14 - - -
01/10:30pm - - - - - SE 15 24 8 13 - - -
01/10:00pm - - - - - SE 11 19 6 10 - - -
01/09:30pm - - - - - SSE 11 19 6 10 - - -
01/09:00pm - - - - - SSE 13 22 7 12 - - -
01/08:30pm - - - - - ESE 17 26 9 14 - - -
01/08:00pm - - - - - SE 13 20 7 11 - - -
01/07:30pm - - - - - SE 15 28 8 15 - - -
01/07:00pm - - - - - SSE 17 24 9 13 - - -
01/06:30pm - - - - - SE 17 24 9 13 - - -
01/06:00pm - - - - - SE 19 30 10 16 - - -
01/05:30pm - - - - - ESE 24 35 13 19 - - -
01/05:00pm - - - - - SSE 6 11 3 6 - - -
01/04:30pm - - - - - SE 15 24 8 13 - - -
01/04:00pm - - - - - SE 19 26 10 14 - - -
01/03:30pm - - - - - SE 20 28 11 15 - - -
01/03:00pm - - - - - SSE 19 28 10 15 - - -
01/02:30pm - - - - - SSE 17 28 9 15 - - -
01/02:00pm - - - - - SSE 13 24 7 13 - - -
01/01:30pm - - - - - S 11 24 6 13 - - -
01/01:00pm - - - - - SSE 13 22 7 12 - - -
01/12:30pm - - - - - SSE 11 20 6 11 - - -
01/12:00pm - - - - - S 11 15 6 8 - - -
01/11:30am - - - - - S 13 20 7 11 - - -
01/11:00am - - - - - ESE 19 26 10 14 - - -
01/10:30am - - - - - SSE 19 30 10 16 - - -
01/10:00am - - - - - SSE 19 28 10 15 - - -
01/09:30am - - - - - SSE 19 30 10 16 - - -
01/09:00am - - - - - SSE 22 33 12 18 - - -
01/08:30am - - - - - SE 24 35 13 19 - - -
01/08:00am - - - - - SSE 24 33 13 18 - - -
01/07:30am - - - - - SSE 28 37 15 20 - - -
01/07:00am - - - - - SSE 24 33 13 18 - - -
01/06:30am - - - - - SSE 24 33 13 18 - - -
01/06:00am - - - - - SSE 24 33 13 18 - - -
01/05:30am - - - - - SSE 24 33 13 18 - - -
01/05:00am - - - - - SSE 26 35 14 19 - - -
01/04:30am - - - - - SSE 24 37 13 20 - - -
01/04:00am - - - - - SSE 26 37 14 20 - - -
01/03:30am - - - - - SSE 28 39 15 21 - - -
01/03:00am - - - - - SSE 26 41 14 22 - - -
01/02:30am - - - - - SSE 22 33 12 18 - - -
01/02:00am - - - - - SSE 24 32 13 17 - - -
01/01:30am - - - - - SE 20 33 11 18 - - -
01/01:00am - - - - - SE 22 35 12 19 - - -
01/12:30am - - - - - SE 22 39 12 21 - - -
01/12:00am - - - - - SE 24 33 13 18 - - -
 
Date/Time
EDT
Temp
°C
App
Temp
°C
Dew
Point
°C
Rel
Hum
%
Delta-T
°C
Wind Press
QNH
hPa
Press
MSL
hPa
Rain since
9am
mm
Dir  Spd
km/h
Gust
km/h
Spd
kts
Gust
kts
30/11:30pm - - - - - SE 24 35 13 19 - - -
30/11:00pm - - - - - SE 26 43 14 23 - - -
30/10:30pm - - - - - SE 28 43 15 23 - - -
30/10:00pm - - - - - SE 30 44 16 24 - - -
30/09:33pm - - - - - SE 30 48 16 26 - - -
30/09:30pm - - - - - SE 32 48 17 26 - - -
30/09:00pm - - - - - SE 33 57 18 31 - - -
30/08:30pm - - - - - SE 30 52 16 28 - - -
30/08:00pm - - - - - ESE 30 44 16 24 - - -
30/07:30pm - - - - - SE 32 52 17 28 - - -
30/07:00pm - - - - - SE 33 54 18 29 - - -
30/06:37pm - - - - - SE 30 50 16 27 - - -
30/06:30pm - - - - - SE 32 48 17 26 - - -
30/06:13pm - - - - - SE 33 54 18 29 - - -
30/06:00pm - - - - - SE 32 50 17 27 - - -
30/05:36pm - - - - - SE 28 46 15 25 - - -
30/05:30pm - - - - - SE 24 41 13 22 - - -
30/05:00pm - - - - - S 15 26 8 14 - - -
30/04:30pm - - - - - S 24 43 13 23 - - -
30/04:00pm - - - - - S 19 28 10 15 - - -
30/03:30pm - - - - - S 22 35 12 19 - - -
30/03:00pm - - - - - SSE 35 54 19 29 - - -
30/02:57pm - - - - - SSE 33 52 18 28 - - -
30/02:30pm - - - - - S 33 44 18 24 - - -
30/02:04pm - - - - - S 32 52 17 28 - - -
30/02:00pm - - - - - S 30 44 16 24 - - -
30/01:48pm - - - - - S 28 48 15 26 - - -
30/01:30pm - - - - - S 26 39 14 21 - - -
30/01:00pm - - - - - S 33 50 18 27 - - -
30/12:36pm - - - - - S 32 50 17 27 - - -
30/12:30pm - - - - - S 33 50 18 27 - - -
30/12:03pm - - - - - S 35 54 19 29 - - -
30/12:00pm - - - - - S 37 54 20 29 - - -
30/11:30am - - - - - S 33 54 18 29 - - -
30/11:12am - - - - - S 28 48 15 26 - - -
30/11:00am - - - - - S 26 44 14 24 - - -
30/10:34am - - - - - S 30 50 16 27 - - -
30/10:30am - - - - - S 30 44 16 24 - - -
30/10:00am - - - - - S 28 46 15 25 - - -
30/09:30am - - - - - SSW 24 39 13 21 - - -
30/09:00am - - - - - S 28 43 15 23 - - -

Latest Capital City Observations: Canberra | Sydney | Melbourne | Brisbane | Adelaide | Perth | Hobart | Darwin

Other formats

Comma delimited format used in spreadsheet applications
http://www.bom.gov.au/fwo/IDN60901/IDN60901.95768.axf

JavaScript Object Notation format (JSON) in row-major order
http://www.bom.gov.au/fwo/IDN60901/IDN60901.95768.json

Data quality

Most of these data are generated automatically and are frequently updated. Quality checks on data are not normally performed. It is possible for incorrect values to appear. Refer to information at About Latest Weather Observations and please check the disclaimer before using these data.